Flight Track Log - Related Links

Times and Time Zones

All times are in EDT time to prevent confusion due to time zone crossing. See the UAL1519 flight status page for this flight to view local times or setup timezone preferences in your user account.

Time Position Orientation Groundspeed Altitude Reporting Facility
EDT Latitude Longitude Course Direction KTS MPH feet Rate Location/Type
Fri 12:18:02 PM 40.6485 -74.1774 195° South 183 211 1,600  Level FlightAware
Fri 12:18:14 PM 40.6384 -74.1810 195° South 197 227 1,800 1,650 Climbing FlightAware
Fri 12:18:42 PM 40.6244 -74.2108 238° Southwest 200 230 2,700 2,082 Climbing FlightAware
Fri 12:19:03 PM 40.6192 -74.2401 257° West 243 280 3,500 2,700 Climbing FlightAware
Fri 12:19:22 PM 40.6148 -74.2695 259° West 255 293 4,500 3,333 Climbing FlightAware
Fri 12:19:48 PM 40.6087 -74.3076 258° West 250 288 6,000 3,286 Climbing FlightAware
Fri 12:20:04 PM 40.6044 -74.3321 257° West 257 296 6,800 3,120 Climbing FlightAware
Fri 12:20:13 PM 40.6020 -74.3464 258° West 259 298 7,300 3,333 Climbing FlightAware
Fri 12:20:22 PM 40.6012 -74.3603 266° West 260 299 7,800 3,000 Climbing FlightAware
Fri 12:20:23 PM 40.6012 -74.3608 270° West 259 298 7,800 2,400 Level FlightAware
Fri 12:20:27 PM 40.6013 -74.3671 271° West 261 300 8,000 3,000 Climbing FlightAware
Fri 12:20:39 PM 40.6031 -74.3867 277° West 264 304 8,600 3,000 Climbing FlightAware
Fri 12:20:55 PM 40.6058 -74.4113 278° West 266 306 9,400 2,609 Climbing FlightAware
Fri 12:21:25 PM 40.6113 -74.4621 278° West 284 327 10,600 2,000 Climbing FlightAware
Fri 12:21:40 PM 40.6135 -74.4882 276° West 300 345 10,900 1,200 Climbing FlightAware
Fri 12:21:45 PM 40.6135 -74.4971 270° West 309 356 11,000 1,200 Climbing FlightAware
Fri 12:21:50 PM 40.6130 -74.5053 265° West 314 361 11,100 1,000 Climbing FlightAware
Fri 12:21:57 PM 40.6113 -74.5190 261° West 323 372 11,200 1,000 Climbing FlightAware
Fri 12:22:02 PM 40.6089 -74.5302 254° West 330 380 11,300 1,500 Climbing FlightAware
Fri 12:22:09 PM 40.6050 -74.5435 249° West 337 388 11,500 1,421 Climbing FlightAware
Fri 12:22:40 PM 40.5809 -74.6003 241° Southwest 365 420 12,200 1,869 Climbing FlightAware
Fri 12:23:10 PM 40.5547 -74.6597 240° Southwest 377 434 13,400 2,419 Climbing FlightAware
Fri 12:23:42 PM 40.5268 -74.7223 240° Southwest 383 441 14,700 2,516 Climbing FlightAware
Fri 12:24:12 PM 40.5001 -74.7834 240° Southwest 387 445 16,000 2,500 Climbing FlightAware
Fri 12:24:42 PM 40.4726 -74.8457 240° Southwest 394 453 17,200 2,262 Climbing FlightAware
Fri 12:25:13 PM 40.4444 -74.9096 240° Southwest 401 461 18,300 2,077 Climbing FlightAware
Fri 12:25:34 PM 40.4237 -74.9538 238° Southwest 407 468 19,000 2,118 Climbing FlightAware
Fri 12:26:04 PM 40.3875 -75.0128 231° Southwest 414 476 20,100 2,066 Climbing FlightAware
Fri 12:26:35 PM 40.3478 -75.0694 227° Southwest 422 486 21,100 1,839 Climbing FlightAware
Fri 12:27:06 PM 40.3058 -75.1281 227° Southwest 429 494 22,000 1,742 Climbing FlightAware
Fri 12:27:37 PM 40.2640 -75.1865 227° Southwest 436 502 22,900 1,672 Climbing FlightAware
Fri 12:28:07 PM 40.2222 -75.2452 227° Southwest 444 511 23,700 1,574 Climbing FlightAware
Fri 12:28:38 PM 40.1782 -75.3068 227° Southwest 451 519 24,500 1,548 Climbing FlightAware
Fri 12:29:09 PM 40.1343 -75.3685 227° Southwest 456 525 25,300 1,574 Climbing FlightAware
Fri 12:29:39 PM 40.0908 -75.4290 227° Southwest 462 532 26,100 1,500 Climbing FlightAware
Fri 12:30:09 PM 40.0465 -75.4907 227° Southwest 467 537 26,800 1,377 Climbing FlightAware
Fri 12:30:40 PM 40.0009 -75.5543 227° Southwest 472 543 27,500 1,645 Climbing FlightAware
Fri 12:31:11 PM 39.9547 -75.6185 227° Southwest 470 541 28,500 2,066 Climbing FlightAware
Fri 12:31:41 PM 39.9109 -75.6821 228° Southwest 465 535 29,600 2,063 Climbing FlightAware
Fri 12:32:15 PM 39.8649 -75.7547 230° Southwest 464 534 30,700 1,846 Climbing FlightAware
Fri 12:32:46 PM 39.8239 -75.8207 231° Southwest 461 531 31,600 1,770 Climbing FlightAware
Fri 12:33:16 PM 39.7827 -75.8868 231° Southwest 461 531 32,500 1,701 Climbing FlightAware
Fri 12:33:53 PM 39.7343 -75.9646 231° Southwest 461 531 33,500 1,765 Climbing FlightAware
Fri 12:34:24 PM 39.6933 -76.0300 231° Southwest 453 521 34,500 1,714 Climbing FlightAware
Fri 12:34:56 PM 39.6507 -76.0978 231° Southwest 450 518 35,300 1,500 Climbing FlightAware
Fri 12:35:32 PM 39.6038 -76.1725 231° Southwest 449 517 36,200 1,343 Climbing FlightAware
Fri 12:36:03 PM 39.5620 -76.2375 230° Southwest 447 514 36,800 1,065 Climbing FlightAware
Fri 12:36:34 PM 39.5209 -76.3009 230° Southwest 451 519 37,300 774 Climbing FlightAware
Fri 12:37:05 PM 39.4787 -76.3656 230° Southwest 456 525 37,600 667 Climbing FlightAware
Fri 12:37:37 PM 39.4356 -76.4327 230° Southwest 457 526 38,000 381 Climbing FlightAware
Fri 12:38:08 PM 39.3949 -76.4976 231° Southwest 457 526 38,000  Level FlightAware
Fri 12:38:42 PM 39.3498 -76.5694 231° Southwest 456 525 38,000  Level FlightAware
Fri 12:39:15 PM 39.3056 -76.6391 231° Southwest 455 524 38,000  Level FlightAware
Fri 12:39:46 PM 39.2646 -76.7034 231° Southwest 453 521 38,000  Level FlightAware
Fri 12:40:24 PM 39.2135 -76.7834 231° Southwest 453 521 38,000  Level FlightAware
Fri 12:40:59 PM 39.1675 -76.8553 230° Southwest 453 521 38,000  Level FlightAware
Fri 12:41:29 PM 39.1273 -76.9180 230° Southwest 452 520 38,000  Level FlightAware
Fri 12:42:00 PM 39.0859 -76.9822 230° Southwest 452 520 38,000  Level FlightAware
Fri 12:42:29 PM 39.0451 -77.0389 227° Southwest 450 518 38,000  Level FlightAware
Fri 12:43:01 PM 38.9948 -77.0971 222° Southwest 450 518 38,000  Level FlightAware
Fri 12:43:32 PM 38.9458 -77.1510 221° Southwest 449 517 38,000  Level FlightAware
Fri 12:44:03 PM 38.8978 -77.2033 220° Southwest 450 518 38,000  Level FlightAware
Fri 12:44:38 PM 38.8427 -77.2637 220° Southwest 449 517 38,000  Level FlightAware
Fri 12:45:10 PM 38.7919 -77.3194 221° Southwest 449 517 38,000  Level FlightAware
Fri 12:45:44 PM 38.7388 -77.3772 220° Southwest 448 516 38,000  Level FlightAware
Fri 12:46:26 PM 38.6724 -77.4495 220° Southwest 448 516 38,000  Level FlightAware
Fri 12:47:34 PM 38.5649 -77.5662 220° Southwest 448 516 38,000  Level FlightAware
Fri 12:48:15 PM 38.5009 -77.6354 220° Southwest 448 516 38,000  Level FlightAware
Fri 12:48:55 PM 38.4372 -77.7042 220° Southwest 447 514 38,000  Level FlightAware
Fri 12:49:36 PM 38.3740 -77.7730 220° Southwest 446 513 38,000  Level FlightAware
Fri 12:49:49 PM 38.3528 -77.7951 219° Southwest 446 513 38,000  Level FlightAware
Fri 12:50:58 PM 38.2450 -77.9100 220° Southwest 446 513 38,000  Level FlightAware
Fri 12:51:42 PM 38.1740 -77.9860 220° Southwest 447 514 38,000  Level FlightAware
Fri 12:52:22 PM 38.1110 -78.0530 220° Southwest 447 514 38,000  Level FlightAware
Fri 12:53:04 PM 38.0440 -78.1240 220° Southwest 447 514 38,000  Level FlightAware
Fri 12:53:48 PM 37.9740 -78.1960 219° Southwest 447 514 38,000  Level FlightAware
Fri 12:54:32 PM 37.9010 -78.2630 216° Southwest 447 514 38,000  Level FlightAware
Fri 12:55:04 PM 37.8480 -78.3130 217° Southwest 447 514 38,000  Level FlightAware
Fri 12:55:48 PM 37.7750 -78.3820 217° Southwest 448 516 38,000  Level FlightAware
Fri 12:56:20 PM 37.7220 -78.4320 217° Southwest 448 516 38,000  Level FlightAware
Fri 12:56:48 PM 37.6750 -78.4770 217° Southwest 447 514 38,000  Level FlightAware
Fri 12:57:34 PM 37.5990 -78.5490 217° Southwest 448 516 38,000  Level FlightAware
Fri 12:58:14 PM 37.5330 -78.6110 217° Southwest 448 516 38,000  Level FlightAware
Fri 12:58:57 PM 37.4600 -78.6790 216° Southwest 448 516 38,000  Level FlightAware
Fri 12:59:30 PM 37.4280 -78.7100 218° Southwest 449 517 38,000  Level FlightAware
Fri 01:00:10 PM 37.3600 -78.7730 216° Southwest 450 518 38,000  Level FlightAware
Fri 01:00:43 PM 37.3060 -78.8240 217° Southwest 451 519 38,000  Level FlightAware
Fri 01:01:18 PM 37.2560 -78.8690 216° Southwest 451 519 38,000  Level FlightAware
Fri 01:02:00 PM 37.1950 -78.9240 216° Southwest 451 519 38,000  Level FlightAware
Fri 01:02:41 PM 37.0920 -79.0210 217° Southwest 455 524 38,000  Level FlightAware
Fri 01:03:33 PM 36.9960 -79.1100 217° Southwest 457 526 38,000  Level FlightAware
Fri 01:04:17 PM 36.9220 -79.1780 216° Southwest 459 528 38,000  Level FlightAware
Fri 01:05:01 PM 36.8450 -79.2490 216° Southwest 459 528 38,000  Level FlightAware
Fri 01:05:52 PM 36.7860 -79.3030 216° Southwest 460 529 38,000  Level FlightAware
Fri 01:06:52 PM 36.6800 -79.4000 216° Southwest 460 529 38,000  Level FlightAware
Fri 01:07:34 PM 36.5860 -79.4850 216° Southwest 461 531 38,000  Level FlightAware
Fri 01:08:19 PM 36.5080 -79.5560 216° Southwest 462 532 38,000  Level FlightAware
Fri 01:08:59 PM 36.4400 -79.6180 216° Southwest 462 532 38,000  Level FlightAware
Fri 01:10:08 PM 36.3200 -79.7260 216° Southwest 463 533 38,000  Level FlightAware
Fri 01:10:49 PM 36.2690 -79.7720 216° Southwest 463 533 38,000  Level FlightAware
Fri 01:11:34 PM 36.2030 -79.8320 216° Southwest 463 533 38,000  Level FlightAware
Fri 01:12:18 PM 36.0930 -79.9300 216° Southwest 458 527 38,000  Level FlightAware
Fri 01:12:58 PM 36.0250 -79.9820 212° Southwest 458 527 38,000  Level FlightAware
Fri 01:13:48 PM 35.9230 -80.0360 203° Southwest 466 536 38,000  Level FlightAware
Fri 01:14:44 PM 35.8090 -80.0930 202° Southwest 468 539 38,000  Level FlightAware
Fri 01:15:59 PM 35.6760 -80.1590 202° Southwest 468 539 38,000  Level FlightAware
Fri 01:16:41 PM 35.5970 -80.1990 202° Southwest 468 539 38,000  Level FlightAware
Fri 01:17:31 PM 35.4790 -80.2580 202° Southwest 469 540 38,000  Level FlightAware
Fri 01:18:20 PM 35.3730 -80.3110 202° Southwest 470 541 38,000  Level FlightAware
Fri 01:18:58 PM 35.2950 -80.3500 202° Southwest 469 540 38,000  Level FlightAware
Fri 01:19:41 PM 35.2100 -80.3920 202° Southwest 469 540 38,000  Level FlightAware
Fri 01:20:25 PM 35.1200 -80.4360 202° Southwest 470 541 38,000  Level FlightAware
Fri 01:21:06 PM 35.0630 -80.4640 202° Southwest 470 541 38,000  Level FlightAware
Fri 01:22:19 PM 34.8900 -80.5490 202° Southwest 469 540 38,000  Level FlightAware
Fri 01:23:01 PM 34.8070 -80.5900 202° Southwest 469 540 38,000  Level FlightAware
Fri 01:23:41 PM 34.7250 -80.6300 202° Southwest 467 537 38,000  Level FlightAware
Fri 01:24:20 PM 34.6490 -80.6670 202° Southwest 467 537 38,000  Level FlightAware
Fri 01:25:02 PM 34.5890 -80.6970 202° Southwest 467 537 38,000  Level FlightAware
Fri 01:25:44 PM 34.4850 -80.7470 202° Southwest 466 536 38,000  Level FlightAware
Fri 01:26:29 PM 34.3890 -80.7940 202° Southwest 466 536 38,000  Level FlightAware
Fri 01:27:07 PM 34.3150 -80.8260 200° South 467 537 38,000  Level FlightAware
Fri 01:27:48 PM 34.2300 -80.8450 190° South 466 536 38,000  Level FlightAware
Fri 01:28:30 PM 34.1450 -80.8560 186° South 465 535 38,000  Level FlightAware
Fri 01:29:27 PM 34.0140 -80.8460 176° South 462 532 38,000  Level FlightAware
Fri 01:30:11 PM 33.9950 -80.8440 175° South 462 532 38,000  Level FlightAware
Fri 01:30:48 PM 33.8440 -80.8300 176° South 461 531 38,000  Level FlightAware
Fri 01:31:37 PM 33.7370 -80.8200 176° South 461 531 38,000  Level FlightAware
Fri 01:32:17 PM 33.6540 -80.8060 172° South 459 528 38,000  Level FlightAware
Fri 01:32:52 PM 33.5800 -80.7910 170° South 459 528 38,000  Level FlightAware
Fri 01:34:20 PM 33.4310 -80.7610 170° South 459 528 38,000  Level FlightAware
Fri 01:34:57 PM 33.3190 -80.7400 171° South 457 526 38,000  Level FlightAware
Fri 01:35:42 PM 33.2270 -80.7220 171° South 457 526 38,000  Level FlightAware
Fri 01:36:22 PM 33.1430 -80.7050 170° South 457 526 38,000  Level FlightAware
Fri 01:36:57 PM 33.0710 -80.6940 173° South 457 526 38,000  Level FlightAware
Fri 01:37:39 PM 32.9950 -80.6990 183° South 458 527 38,000  Level FlightAware
Fri 01:38:16 PM 32.9330 -80.7130 191° South 458 527 38,000  Level FlightAware
Fri 01:38:57 PM 32.8520 -80.7370 194° South 457 526 38,000  Level FlightAware
Fri 01:39:43 PM 32.7240 -80.7750 194° South 458 527 38,000  Level FlightAware
Fri 01:40:27 PM 32.6380 -80.7960 192° South 459 528 38,000  Level FlightAware
Fri 01:41:07 PM 32.5490 -80.8140 190° South 459 528 38,000  Level FlightAware
Fri 01:42:05 PM 32.4590 -80.8300 189° South 460 529 38,000  Level FlightAware
Fri 01:42:48 PM 32.3460 -80.8490 188° South 458 527 38,000  Level FlightAware
Fri 01:43:29 PM 32.2640 -80.8640 189° South 459 528 38,000  Level FlightAware
Fri 01:44:08 PM 32.1710 -80.8800 188° South 459 528 38,000  Level FlightAware
Fri 01:44:50 PM 32.0940 -80.8940 189° South 460 529 38,000  Level FlightAware
Fri 01:45:31 PM 32.0110 -80.9090 189° South 461 531 38,000  Level FlightAware
Fri 01:46:03 PM 31.9380 -80.9220 189° South 461 531 38,000  Level FlightAware
Fri 01:46:45 PM 31.8480 -80.9380 189° South 463 533 38,000  Level FlightAware
Fri 01:47:22 PM 31.7880 -80.9480 188° South 464 534 38,000  Level FlightAware
Fri 01:47:56 PM 31.9210 -80.9250 North 38,000  Level FlightAware
Fri 01:48:39 PM 31.6330 -80.9760 189° South 465 535 38,000 -409 Level FlightAware
Fri 01:49:24 PM 31.5080 -80.9980 189° South 473 544 37,400 -583 Descending FlightAware
Fri 01:50:22 PM 31.3920 -81.0170 188° South 474 545 37,000 -629 Descending FlightAware
Fri 01:51:09 PM 31.2820 -81.0370 189° South 475 547 36,300 -483 Descending FlightAware
Fri 01:51:49 PM 31.2080 -81.0490 188° South 475 547 36,300  Level FlightAware
Fri 01:52:52 PM 31.0910 -81.0680 188° South 475 547 36,300  Level FlightAware
Fri 01:53:28 PM 31.0250 -81.0790 188° South 475 547 36,300  Level FlightAware
Fri 01:54:14 PM 30.9400 -81.0930 188° South 475 547 36,300  Level FlightAware
Fri 01:55:00 PM 30.8550 -81.1070 188° South 475 547 36,300  Level FlightAware
Fri 01:55:58 PM 30.7470 -81.1250 188° South 475 547 36,300 -1,379 Level FlightAware
Fri 01:56:29 PM 30.5830 -81.0740 165° South 33,900 -2,155 Descending FlightAware
Fri 01:57:41 PM 30.4310 -81.0780 181° South 469 540 32,600 -1,526 Descending FlightAware
Fri 01:58:23 PM 30.3290 -81.0820 182° South 489 563 31,000 -1,814 Descending FlightAware
Fri 01:59:07 PM 30.2280 -81.0840 181° South 482 555 30,000 -1,214 Descending FlightAware
Fri 01:59:47 PM 30.1600 -81.0860 181° South 478 550 29,300 -626 Descending FlightAware
Fri 02:01:02 PM 30.0150 -81.0920 182° South 477 549 28,800 -826 Descending FlightAware
Fri 02:01:36 PM 30.0490 -81.0900 North 476 548 27,800 -732 Descending FlightAware
Fri 02:02:24 PM 29.9590 -81.0940 182° South 476 548 27,800  Level FlightAware
Fri 02:03:00 PM 29.8920 -81.0970 182° South 476 548 27,800  Level FlightAware
Fri 02:03:35 PM 29.8260 -81.0990 182° South 476 548 27,800  Level FlightAware
Fri 02:04:36 PM 29.7120 -81.1040 182° South 476 548 27,800 -4,266 Level FlightAware
Fri 02:05:43 PM 29.4314 -81.0922 182° South 420 483 18,700 -5,339 Descending Jacksonville Center
Fri 02:06:43 PM 29.3247 -81.0847 176° South 407 468 16,500 -2,100 Descending Jacksonville Center
Fri 02:07:43 PM 29.2183 -81.0914 183° South 391 450 14,500 -1,966 Descending Jacksonville Center
Fri 02:08:42 PM 29.1161 -81.0933 181° South 379 436 12,600 -1,250 Descending Jacksonville Center
Fri 02:09:43 PM 29.0264 -81.0925 180° South 354 407 12,000 -645 Descending Jacksonville Center
Fri 02:10:43 PM 28.9447 -81.0797 172° South 322 371 11,300 -1,100 Descending Jacksonville Center
Fri 02:11:43 PM 28.8694 -81.0669 172° South 296 341 9,800 -1,550 Descending Jacksonville Center
Fri 02:12:43 PM 28.7986 -81.0803 189° South 271 312 8,200 -1,596 Descending Jacksonville Center
Fri 02:13:32 PM 28.7667 -81.1500 242° Southwest 274 315 6,900 -1,486 Descending Orlando TRACON
Fri 02:14:32 PM 28.7167 -81.2000 221° Southwest 266 306 5,500 -1,450 Descending Orlando TRACON
Fri 02:15:32 PM 28.6667 -81.2667 229° Southwest 263 303 4,000 -1,150 Descending Orlando TRACON
Fri 02:16:32 PM 28.6167 -81.3167 221° Southwest 215 247 3,200 -800 Descending Orlando TRACON

Login

Don't have an account? Register now (free) for customized features, flight alerts, and more!